createdAt,value
2018-10-01T00:02:35.399Z,13.59
2018-10-01T00:07:30.026Z,13.55
2018-10-01T00:12:24.684Z,13.52
2018-10-01T00:17:19.256Z,13.51
2018-10-01T00:22:19.085Z,13.59
2018-10-01T00:27:13.606Z,13.58
2018-10-01T00:32:08.260Z,13.43
2018-10-01T00:37:02.863Z,13.41
2018-10-01T00:41:57.408Z,13.59
2018-10-01T00:46:51.909Z,13.64
2018-10-01T00:51:46.436Z,13.56
2018-10-01T00:56:40.922Z,13.47
2018-10-01T01:01:35.500Z,13.48
2018-10-01T01:06:30.021Z,13.45
2018-10-01T01:11:24.856Z,13.36
2018-10-01T01:16:19.442Z,13.38
2018-10-01T01:21:14.406Z,13.42
2018-10-01T01:26:09.107Z,13.38
2018-10-01T01:31:03.931Z,13.44
2018-10-01T01:35:58.676Z,13.46
2018-10-01T01:40:53.220Z,13.31
2018-10-01T01:45:47.907Z,13.16
2018-10-01T01:50:42.499Z,13.22
2018-10-01T01:55:37.057Z,13.29
2018-10-01T02:00:31.879Z,13.40
2018-10-01T02:05:26.481Z,13.27
2018-10-01T02:10:21.236Z,13.25
2018-10-01T02:15:15.905Z,13.37
2018-10-01T02:20:10.539Z,13.32
2018-10-01T02:25:05.309Z,13.26
2018-10-01T02:30:00.237Z,13.20
2018-10-01T02:34:54.820Z,13.05
2018-10-01T02:39:49.372Z,13.04
2018-10-01T02:44:44.029Z,13.09
2018-10-01T02:49:39.192Z,13.06
2018-10-01T02:54:34.191Z,13.15
2018-10-01T02:59:28.962Z,13.12
2018-10-01T03:04:23.685Z,13.11
2018-10-01T03:09:18.188Z,13.17
2018-10-01T03:14:12.970Z,13.15
2018-10-01T03:19:07.940Z,13.02
2018-10-01T03:24:02.489Z,12.99
2018-10-01T03:28:57.224Z,12.92
2018-10-01T03:33:51.757Z,12.84
2018-10-01T03:38:46.235Z,12.82
2018-10-01T03:43:41.001Z,12.93
2018-10-01T03:48:36.014Z,12.93
2018-10-01T03:53:30.569Z,12.88
2018-10-01T03:58:25.232Z,12.83
2018-10-01T04:03:20.079Z,12.75
2018-10-01T04:08:14.917Z,12.75
2018-10-01T04:13:09.621Z,12.75
2018-10-01T04:18:04.397Z,12.76
2018-10-01T04:22:59.238Z,12.69
2018-10-01T04:27:59.592Z,12.82
2018-10-01T04:32:55.209Z,12.76
2018-10-01T04:37:50.046Z,12.80
2018-10-01T04:42:45.032Z,12.77
2018-10-01T04:47:39.869Z,12.63
2018-10-01T04:52:35.392Z,12.62
2018-10-01T04:57:30.855Z,12.68
2018-10-01T05:02:25.616Z,12.61
2018-10-01T05:07:20.708Z,12.53
2018-10-01T05:12:16.263Z,12.54
2018-10-01T05:17:16.171Z,12.63
2018-10-01T05:22:10.921Z,12.57
2018-10-01T05:27:06.077Z,12.54
2018-10-01T05:32:00.917Z,12.62
2018-10-01T05:36:55.616Z,12.52
2018-10-01T05:41:50.416Z,12.44
2018-10-01T05:46:44.959Z,12.42
2018-10-01T05:51:40.651Z,12.38
2018-10-01T05:56:35.753Z,12.33
2018-10-01T06:01:30.788Z,12.38
2018-10-01T06:06:29.620Z,12.43
2018-10-01T06:11:27.182Z,12.33
2018-10-01T06:16:53.778Z,12.27
2018-10-01T06:21:49.604Z,12.30
2018-10-01T06:26:44.252Z,12.46
2018-10-01T06:31:38.908Z,12.40
2018-10-01T06:36:33.437Z,12.41
2018-10-01T06:41:28.823Z,12.52
2018-10-01T06:46:23.392Z,12.67
2018-10-01T06:51:17.946Z,12.79
2018-10-01T06:56:13.108Z,12.56
2018-10-01T07:01:09.320Z,12.29
2018-10-01T07:06:04.257Z,12.09
2018-10-01T07:11:02.538Z,11.99
2018-10-01T07:16:02.192Z,11.87
2018-10-01T07:20:56.841Z,11.86
2018-10-01T07:25:58.480Z,11.76
2018-10-01T07:30:53.373Z,11.72
2018-10-01T07:35:50.907Z,11.67
2018-10-01T07:40:45.781Z,11.62
2018-10-01T07:45:47.170Z,11.60
2018-10-01T07:50:50.049Z,11.67
2018-10-01T07:55:44.986Z,11.68
2018-10-01T08:00:39.943Z,11.81
2018-10-01T08:05:34.468Z,11.84
2018-10-01T08:10:29.369Z,11.95
2018-10-01T08:15:25.186Z,11.99
2018-10-01T08:20:20.604Z,11.97
2018-10-01T08:25:15.824Z,11.87
2018-10-01T08:30:11.232Z,11.85
2018-10-01T08:35:06.185Z,12.00
2018-10-01T08:56:24.697Z,12.04
2018-10-01T09:01:19.327Z,11.93
2018-10-01T09:06:18.303Z,12.02
2018-10-01T09:11:13.190Z,12.12
2018-10-01T09:16:07.725Z,12.24
2018-10-01T09:26:27.947Z,12.76
2018-10-01T09:31:22.490Z,12.69
2018-10-01T09:36:17.103Z,13.05
2018-10-01T09:41:12.194Z,13.18
2018-10-01T10:02:23.875Z,13.12
2018-10-01T10:07:22.348Z,13.19
2018-10-01T10:12:23.696Z,13.27
2018-10-01T10:17:19.431Z,13.31
2018-10-01T10:27:43.934Z,13.73
2018-10-01T10:32:39.405Z,14.11
2018-10-01T10:37:35.049Z,14.28
2018-10-01T10:42:29.841Z,14.05
2018-10-01T11:03:39.188Z,13.84
2018-10-01T11:08:34.690Z,13.99
2018-10-01T11:13:31.092Z,14.14
2018-10-01T11:18:27.050Z,14.02
2018-10-01T11:23:22.406Z,13.85
2018-10-01T11:44:31.581Z,13.73
2018-10-01T11:49:26.666Z,13.89
2018-10-01T11:54:27.448Z,13.99
2018-10-01T11:59:22.969Z,14.03
2018-10-01T12:04:18.439Z,14.11
2018-10-01T12:25:28.444Z,13.93
2018-10-01T12:30:27.776Z,13.89
2018-10-01T12:35:22.749Z,13.77
2018-10-01T12:40:17.658Z,13.58
2018-10-01T13:01:26.481Z,12.78
2018-10-01T13:06:21.636Z,12.52
2018-10-01T13:11:16.599Z,12.41
2018-10-01T13:16:11.655Z,10.40
2018-10-01T13:21:07.854Z,10.06
2018-10-01T13:26:06.313Z,10.25
2018-10-01T13:31:02.753Z,10.39
2018-10-01T13:36:00.443Z,10.34
2018-10-01T13:40:55.352Z,10.63
2018-10-01T14:02:05.108Z,11.02
2018-10-01T14:06:59.822Z,11.06
2018-10-01T14:11:54.790Z,11.14
2018-10-01T14:16:49.672Z,10.99
2018-10-01T14:21:46.481Z,10.93
2018-10-01T14:26:43.706Z,10.47
2018-10-01T14:31:40.185Z,10.33
2018-10-01T14:36:51.662Z,10.28
2018-10-01T14:41:52.220Z,10.30
2018-10-01T15:03:02.474Z,10.77
2018-10-01T15:07:57.413Z,10.92
2018-10-01T15:12:53.400Z,11.02
2018-10-01T15:17:48.961Z,11.09
2018-10-01T15:22:44.281Z,11.10
2018-10-01T15:27:38.976Z,11.27
2018-10-01T15:32:33.936Z,11.13
2018-10-01T15:37:29.684Z,11.08
2018-10-01T15:42:24.765Z,11.19
2018-10-01T16:03:33.377Z,11.50
2018-10-01T16:08:27.973Z,11.46
2018-10-01T16:13:22.557Z,11.43
2018-10-01T16:18:17.232Z,11.41
2018-10-01T16:23:11.740Z,11.38
2018-10-01T16:28:06.369Z,11.37
2018-10-01T16:33:00.872Z,11.39
2018-10-01T16:37:55.392Z,11.38
2018-10-01T16:42:50.049Z,11.23
2018-10-01T17:03:59.441Z,10.97
2018-10-01T17:08:54.176Z,10.98
2018-10-01T17:13:48.997Z,10.94
2018-10-01T17:18:43.785Z,10.92
2018-10-01T17:23:38.574Z,11.17
2018-10-01T17:28:33.149Z,11.12
2018-10-01T17:33:27.941Z,11.16
2018-10-01T17:38:23.715Z,9.87
2018-10-01T17:43:18.366Z,9.35
2018-10-01T18:04:27.469Z,9.14
2018-10-01T18:09:22.128Z,9.08
2018-10-01T18:14:16.830Z,9.03
2018-10-01T18:19:12.098Z,9.20
2018-10-01T18:24:07.001Z,9.21
2018-10-01T18:29:01.835Z,9.31
2018-10-01T18:33:56.505Z,9.40
2018-10-01T18:43:55.253Z,9.48
2018-10-01T19:05:04.307Z,9.38
2018-10-01T19:09:58.896Z,9.31
2018-10-01T19:14:53.701Z,9.25
2018-10-01T19:19:48.204Z,9.26
2018-10-01T19:24:42.927Z,9.21
2018-10-01T19:29:37.541Z,9.28
2018-10-01T19:34:32.166Z,9.30
2018-10-01T19:39:27.451Z,9.34
2018-10-01T19:44:22.332Z,9.33
2018-10-01T20:05:32.629Z,9.57
2018-10-01T20:10:27.250Z,9.62
2018-10-01T20:15:21.995Z,9.53
2018-10-01T20:20:16.609Z,9.67
2018-10-01T20:25:11.134Z,9.69
2018-10-01T20:30:05.849Z,9.59
2018-10-01T20:35:00.523Z,9.53
2018-10-01T20:39:54.976Z,9.44
2018-10-01T20:44:49.496Z,9.70
2018-10-01T21:05:58.265Z,9.93
2018-10-01T21:10:52.810Z,9.92
2018-10-01T21:15:47.362Z,9.91
2018-10-01T21:20:41.934Z,9.85
2018-10-01T21:25:36.477Z,9.85
2018-10-01T21:46:45.645Z,9.61
2018-10-01T21:51:40.349Z,9.63
2018-10-01T21:56:35.117Z,9.51
2018-10-01T22:01:35.032Z,9.45
2018-10-01T22:06:29.752Z,9.36
2018-10-01T22:27:38.602Z,9.49
2018-10-01T22:32:33.365Z,9.55
2018-10-01T22:37:28.010Z,9.52
2018-10-01T22:42:22.741Z,9.49
2018-10-01T22:47:17.772Z,9.52
2018-10-01T23:08:27.088Z,9.33
2018-10-01T23:13:21.701Z,9.44
2018-10-01T23:18:16.356Z,9.38
2018-10-01T23:23:10.922Z,9.18
2018-10-01T23:28:05.587Z,9.05
2018-10-01T23:49:15.103Z,8.57
2018-10-01T23:54:09.648Z,8.48
2018-10-01T23:59:04.217Z,8.30
